sensor_id;sensor_type;location;lat;lon;timestamp;pressure;altitude;pressure_sealevel;temperature;humidity
75192;BME280;63771;52.580;9.734;2023-09-19T00:01:22;100158.41;;;16.64;95.12
75192;BME280;63771;52.580;9.734;2023-09-19T00:03:47;100158.28;;;16.61;94.97
75192;BME280;63771;52.580;9.734;2023-09-19T00:06:13;100173.84;;;16.64;94.99
75192;BME280;63771;52.580;9.734;2023-09-19T00:08:41;100175.66;;;16.65;94.79
75192;BME280;63771;52.580;9.734;2023-09-19T00:11:09;100175.47;;;16.62;94.70
75192;BME280;63771;52.580;9.734;2023-09-19T00:13:36;100185.78;;;16.62;94.92
75192;BME280;63771;52.580;9.734;2023-09-19T00:16:08;100188.31;;;16.61;94.98
75192;BME280;63771;52.580;9.734;2023-09-19T00:18:33;100183.88;;;16.58;95.20
75192;BME280;63771;52.580;9.734;2023-09-19T00:21:00;100187.25;;;16.57;94.91
75192;BME280;63771;52.580;9.734;2023-09-19T00:23:25;100184.69;;;16.57;95.06
75192;BME280;63771;52.580;9.734;2023-09-19T00:25:51;100179.22;;;16.51;95.18
75192;BME280;63771;52.580;9.734;2023-09-19T00:28:17;100176.00;;;16.55;95.05
75192;BME280;63771;52.580;9.734;2023-09-19T00:30:46;100176.06;;;16.57;95.07
75192;BME280;63771;52.580;9.734;2023-09-19T00:33:21;100169.00;;;16.53;95.14
75192;BME280;63771;52.580;9.734;2023-09-19T00:35:53;100174.91;;;16.50;95.64
75192;BME280;63771;52.580;9.734;2023-09-19T00:38:19;100186.78;;;16.48;95.46
75192;BME280;63771;52.580;9.734;2023-09-19T00:40:52;100184.22;;;16.48;95.69
75192;BME280;63771;52.580;9.734;2023-09-19T00:43:18;100188.41;;;16.46;95.54
75192;BME280;63771;52.580;9.734;2023-09-19T00:45:47;100193.69;;;16.49;95.27
75192;BME280;63771;52.580;9.734;2023-09-19T00:48:13;100201.22;;;16.44;95.88
75192;BME280;63771;52.580;9.734;2023-09-19T00:50:41;100195.91;;;16.41;95.62
75192;BME280;63771;52.580;9.734;2023-09-19T00:53:07;100196.78;;;16.42;95.86
75192;BME280;63771;52.580;9.734;2023-09-19T00:55:33;100189.88;;;16.41;95.59
75192;BME280;63771;52.580;9.734;2023-09-19T00:57:59;100201.78;;;16.39;95.63
75192;BME280;63771;52.580;9.734;2023-09-19T01:00:25;100205.34;;;16.41;95.76
75192;BME280;63771;52.580;9.734;2023-09-19T01:02:50;100209.38;;;16.36;95.70
75192;BME280;63771;52.580;9.734;2023-09-19T01:05:16;100212.25;;;16.42;95.33
75192;BME280;63771;52.580;9.734;2023-09-19T01:07:42;100213.69;;;16.37;95.80
75192;BME280;63771;52.580;9.734;2023-09-19T01:10:11;100208.63;;;16.38;96.00
75192;BME280;63771;52.580;9.734;2023-09-19T01:15:49;100222.38;;;16.39;95.42
75192;BME280;63771;52.580;9.734;2023-09-19T01:21:22;100227.38;;;16.36;95.27
75192;BME280;63771;52.580;9.734;2023-09-19T01:29:49;100237.53;;;16.33;95.16
75192;BME280;63771;52.580;9.734;2023-09-19T01:32:17;100238.28;;;16.30;95.48
75192;BME280;63771;52.580;9.734;2023-09-19T01:34:56;100242.44;;;16.28;95.37
75192;BME280;63771;52.580;9.734;2023-09-19T01:37:29;100245.75;;;16.26;95.45
75192;BME280;63771;52.580;9.734;2023-09-19T01:40:06;100247.50;;;16.27;95.62
75192;BME280;63771;52.580;9.734;2023-09-19T01:47:53;100252.97;;;16.33;95.68
75192;BME280;63771;52.580;9.734;2023-09-19T01:51:02;100254.59;;;16.31;96.16
75192;BME280;63771;52.580;9.734;2023-09-19T01:53:30;100265.03;;;16.34;95.59
75192;BME280;63771;52.580;9.734;2023-09-19T01:55:58;100254.72;;;16.34;96.29
75192;BME280;63771;52.580;9.734;2023-09-19T01:58:32;100250.56;;;16.36;95.93
75192;BME280;63771;52.580;9.734;2023-09-19T02:01:00;100253.13;;;16.36;95.37
75192;BME280;63771;52.580;9.734;2023-09-19T02:03:27;100246.28;;;16.36;95.16
75192;BME280;63771;52.580;9.734;2023-09-19T02:05:54;100251.22;;;16.32;94.78
75192;BME280;63771;52.580;9.734;2023-09-19T02:08:20;100252.72;;;16.28;94.78
75192;BME280;63771;52.580;9.734;2023-09-19T02:10:49;100247.50;;;16.27;94.84
75192;BME280;63771;52.580;9.734;2023-09-19T02:13:18;100257.81;;;16.27;94.40
75192;BME280;63771;52.580;9.734;2023-09-19T02:15:46;100263.69;;;16.24;94.42
75192;BME280;63771;52.580;9.734;2023-09-19T02:18:15;100266.19;;;16.23;94.65
75192;BME280;63771;52.580;9.734;2023-09-19T02:20:40;100262.66;;;16.21;94.33
75192;BME280;63771;52.580;9.734;2023-09-19T02:23:06;100269.41;;;16.18;94.26
75192;BME280;63771;52.580;9.734;2023-09-19T02:25:33;100273.66;;;16.18;93.96
75192;BME280;63771;52.580;9.734;2023-09-19T02:27:58;100278.59;;;16.13;94.36
75192;BME280;63771;52.580;9.734;2023-09-19T02:30:24;100292.25;;;16.12;94.19
75192;BME280;63771;52.580;9.734;2023-09-19T02:32:51;100285.19;;;16.08;94.11
75192;BME280;63771;52.580;9.734;2023-09-19T02:35:17;100289.53;;;16.09;94.47
75192;BME280;63771;52.580;9.734;2023-09-19T02:37:46;100286.78;;;16.06;94.51
75192;BME280;63771;52.580;9.734;2023-09-19T02:40:11;100281.72;;;16.08;94.74
75192;BME280;63771;52.580;9.734;2023-09-19T02:42:54;100289.53;;;16.09;94.68
75192;BME280;63771;52.580;9.734;2023-09-19T02:45:20;100292.91;;;16.08;94.77
75192;BME280;63771;52.580;9.734;2023-09-19T02:47:48;100297.81;;;16.04;94.92
75192;BME280;63771;52.580;9.734;2023-09-19T02:50:14;100291.53;;;15.99;94.90
75192;BME280;63771;52.580;9.734;2023-09-19T02:52:43;100299.16;;;15.97;94.82
75192;BME280;63771;52.580;9.734;2023-09-19T02:55:10;100294.09;;;15.99;94.54
75192;BME280;63771;52.580;9.734;2023-09-19T02:57:36;100298.38;;;15.98;94.54
75192;BME280;63771;52.580;9.734;2023-09-19T03:00:08;100301.56;;;15.94;94.56
75192;BME280;63771;52.580;9.734;2023-09-19T03:02:36;100304.84;;;15.91;94.56
75192;BME280;63771;52.580;9.734;2023-09-19T03:05:01;100303.91;;;15.89;94.45
75192;BME280;63771;52.580;9.734;2023-09-19T03:07:28;100301.06;;;15.85;94.45
75192;BME280;63771;52.580;9.734;2023-09-19T03:09:54;100317.13;;;15.81;94.45
75192;BME280;63771;52.580;9.734;2023-09-19T03:12:20;100320.53;;;15.80;93.92
75192;BME280;63771;52.580;9.734;2023-09-19T03:14:45;100319.06;;;15.69;93.64
75192;BME280;63771;52.580;9.734;2023-09-19T03:17:11;100327.66;;;15.69;93.72
75192;BME280;63771;52.580;9.734;2023-09-19T03:19:36;100332.66;;;15.66;93.16
75192;BME280;63771;52.580;9.734;2023-09-19T03:22:05;100329.97;;;15.64;92.06
75192;BME280;63771;52.580;9.734;2023-09-19T03:24:31;100332.19;;;15.58;91.11
75192;BME280;63771;52.580;9.734;2023-09-19T03:26:58;100328.72;;;15.58;91.56
75192;BME280;63771;52.580;9.734;2023-09-19T03:29:23;100336.44;;;15.58;91.49
75192;BME280;63771;52.580;9.734;2023-09-19T03:31:50;100327.84;;;15.57;91.35
75192;BME280;63771;52.580;9.734;2023-09-19T03:34:15;100337.50;;;15.61;91.21
75192;BME280;63771;52.580;9.734;2023-09-19T03:36:41;100335.03;;;15.63;91.54
75192;BME280;63771;52.580;9.734;2023-09-19T03:39:06;100334.41;;;15.67;90.85
75192;BME280;63771;52.580;9.734;2023-09-19T03:41:32;100339.00;;;15.73;90.55
75192;BME280;63771;52.580;9.734;2023-09-19T03:44:01;100337.25;;;15.72;90.27
75192;BME280;63771;52.580;9.734;2023-09-19T03:46:27;100339.16;;;15.76;89.98
75192;BME280;63771;52.580;9.734;2023-09-19T03:48:53;100340.94;;;15.77;90.11
75192;BME280;63771;52.580;9.734;2023-09-19T03:51:20;100346.97;;;15.77;88.99
75192;BME280;63771;52.580;9.734;2023-09-19T03:53:45;100351.94;;;15.74;88.85
75192;BME280;63771;52.580;9.734;2023-09-19T03:56:10;100342.72;;;15.78;88.48
75192;BME280;63771;52.580;9.734;2023-09-19T03:58:36;100344.47;;;15.79;88.97
75192;BME280;63771;52.580;9.734;2023-09-19T04:01:04;100340.22;;;15.79;88.81
75192;BME280;63771;52.580;9.734;2023-09-19T04:03:32;100338.53;;;15.80;88.80
75192;BME280;63771;52.580;9.734;2023-09-19T04:06:11;100348.88;;;15.81;89.11
75192;BME280;63771;52.580;9.734;2023-09-19T04:08:37;100349.81;;;15.82;88.83
75192;BME280;63771;52.580;9.734;2023-09-19T04:11:02;100353.53;;;15.87;88.74
75192;BME280;63771;52.580;9.734;2023-09-19T04:13:27;100350.84;;;15.85;88.52
75192;BME280;63771;52.580;9.734;2023-09-19T04:15:53;100358.41;;;15.82;87.97
75192;BME280;63771;52.580;9.734;2023-09-19T04:18:18;100360.09;;;15.82;88.34
75192;BME280;63771;52.580;9.734;2023-09-19T04:20:51;100362.56;;;15.80;88.37
75192;BME280;63771;52.580;9.734;2023-09-19T04:23:17;100366.81;;;15.80;88.17
75192;BME280;63771;52.580;9.734;2023-09-19T04:25:43;100365.69;;;15.75;87.57
75192;BME280;63771;52.580;9.734;2023-09-19T04:28:08;100373.41;;;15.75;87.90
75192;BME280;63771;52.580;9.734;2023-09-19T04:30:36;100374.84;;;15.70;87.83
75192;BME280;63771;52.580;9.734;2023-09-19T04:33:01;100377.31;;;15.68;88.12
75192;BME280;63771;52.580;9.734;2023-09-19T04:35:27;100378.03;;;15.65;87.79
75192;BME280;63771;52.580;9.734;2023-09-19T04:37:54;100376.84;;;15.60;87.75
75192;BME280;63771;52.580;9.734;2023-09-19T04:40:20;100376.63;;;15.56;87.85
75192;BME280;63771;52.580;9.734;2023-09-19T04:42:45;100387.69;;;15.55;88.67
75192;BME280;63771;52.580;9.734;2023-09-19T04:45:11;100385.03;;;15.53;88.18
75192;BME280;63771;52.580;9.734;2023-09-19T04:47:37;100390.78;;;15.49;88.42
75192;BME280;63771;52.580;9.734;2023-09-19T04:50:08;100404.47;;;15.48;88.44
75192;BME280;63771;52.580;9.734;2023-09-19T04:52:43;100393.09;;;15.45;88.16
75192;BME280;63771;52.580;9.734;2023-09-19T04:55:13;100401.47;;;15.40;87.96
75192;BME280;63771;52.580;9.734;2023-09-19T04:57:44;100398.91;;;15.40;88.43
75192;BME280;63771;52.580;9.734;2023-09-19T05:00:17;100397.19;;;15.41;88.19
75192;BME280;63771;52.580;9.734;2023-09-19T05:02:50;100394.44;;;15.38;88.27
75192;BME280;63771;52.580;9.734;2023-09-19T05:05:16;100391.88;;;15.38;88.29
75192;BME280;63771;52.580;9.734;2023-09-19T05:07:42;100390.09;;;15.37;88.18
75192;BME280;63771;52.580;9.734;2023-09-19T05:10:08;100391.88;;;15.38;88.25
75192;BME280;63771;52.580;9.734;2023-09-19T05:12:37;100389.16;;;15.35;88.16
75192;BME280;63771;52.580;9.734;2023-09-19T05:15:03;100385.84;;;15.37;88.33
75192;BME280;63771;52.580;9.734;2023-09-19T05:17:29;100400.38;;;15.37;88.62
75192;BME280;63771;52.580;9.734;2023-09-19T05:19:54;100400.03;;;15.31;88.68
75192;BME280;63771;52.580;9.734;2023-09-19T05:22:20;100412.91;;;15.31;88.35
75192;BME280;63771;52.580;9.734;2023-09-19T05:24:45;100418.84;;;15.30;89.22
75192;BME280;63771;52.580;9.734;2023-09-19T05:27:16;100410.94;;;15.27;88.61
75192;BME280;63771;52.580;9.734;2023-09-19T05:29:43;100410.94;;;15.27;89.16
75192;BME280;63771;52.580;9.734;2023-09-19T05:32:10;100426.28;;;15.25;88.41
75192;BME280;63771;52.580;9.734;2023-09-19T05:34:36;100424.59;;;15.26;88.24
75192;BME280;63771;52.580;9.734;2023-09-19T05:37:01;100424.59;;;15.26;88.25
75192;BME280;63771;52.580;9.734;2023-09-19T05:39:27;100435.03;;;15.29;88.66
75192;BME280;63771;52.580;9.734;2023-09-19T05:41:52;100442.94;;;15.32;88.22
75192;BME280;63771;52.580;9.734;2023-09-19T05:44:18;100459.97;;;15.30;88.00
75192;BME280;63771;52.580;9.734;2023-09-19T05:46:43;100463.31;;;15.29;88.03
75192;BME280;63771;52.580;9.734;2023-09-19T05:49:10;100465.81;;;15.27;88.38
75192;BME280;63771;52.580;9.734;2023-09-19T05:51:35;100466.69;;;15.28;88.26
75192;BME280;63771;52.580;9.734;2023-09-19T05:54:01;100464.13;;;15.28;88.59
75192;BME280;63771;52.580;9.734;2023-09-19T05:56:27;100462.44;;;15.28;88.56
75192;BME280;63771;52.580;9.734;2023-09-19T05:58:52;100472.91;;;15.31;88.02
75192;BME280;63771;52.580;9.734;2023-09-19T06:01:18;100479.81;;;15.32;87.97
75192;BME280;63771;52.580;9.734;2023-09-19T06:03:44;100481.41;;;15.30;88.10
75192;BME280;63771;52.580;9.734;2023-09-19T06:06:09;100479.53;;;15.28;87.56
75192;BME280;63771;52.580;9.734;2023-09-19T06:08:35;100475.38;;;15.30;87.67
75192;BME280;63771;52.580;9.734;2023-09-19T06:11:00;100481.03;;;15.24;87.81
75192;BME280;63771;52.580;9.734;2023-09-19T06:13:28;100483.34;;;15.20;87.40
75192;BME280;63771;52.580;9.734;2023-09-19T06:15:57;100479.09;;;15.20;87.24
75192;BME280;63771;52.580;9.734;2023-09-19T06:18:23;100471.47;;;15.22;87.37
75192;BME280;63771;52.580;9.734;2023-09-19T06:20:51;100473.44;;;15.26;87.45
75192;BME280;63771;52.580;9.734;2023-09-19T06:23:17;100473.25;;;15.23;86.54
75192;BME280;63771;52.580;9.734;2023-09-19T06:25:43;100461.00;;;15.19;86.38
75192;BME280;63771;52.580;9.734;2023-09-19T06:28:11;100465.25;;;15.18;86.97
75192;BME280;63771;52.580;9.734;2023-09-19T06:30:39;100467.94;;;15.20;86.26
75192;BME280;63771;52.580;9.734;2023-09-19T06:33:05;100473.84;;;15.19;86.96
75192;BME280;63771;52.580;9.734;2023-09-19T06:35:33;100473.31;;;15.24;86.75
75192;BME280;63771;52.580;9.734;2023-09-19T06:37:58;100474.31;;;15.26;86.37
75192;BME280;63771;52.580;9.734;2023-09-19T06:40:24;100473.59;;;15.29;86.61
75192;BME280;63771;52.580;9.734;2023-09-19T06:42:53;100478.94;;;15.32;86.61
75192;BME280;63771;52.580;9.734;2023-09-19T06:45:19;100475.75;;;15.36;86.91
75192;BME280;63771;52.580;9.734;2023-09-19T06:47:47;100488.16;;;15.43;87.14
75192;BME280;63771;52.580;9.734;2023-09-19T06:50:19;100494.19;;;15.44;86.88
75192;BME280;63771;52.580;9.734;2023-09-19T06:52:48;100496.13;;;15.48;86.35
75192;BME280;63771;52.580;9.734;2023-09-19T06:55:18;100498.78;;;15.49;86.22
75192;BME280;63771;52.580;9.734;2023-09-19T06:57:44;100493.84;;;15.52;85.69
75192;BME280;63771;52.580;9.734;2023-09-19T07:00:10;100484.72;;;15.57;85.35
75192;BME280;63771;52.580;9.734;2023-09-19T07:02:54;100494.19;;;15.58;84.18
75192;BME280;63771;52.580;9.734;2023-09-19T07:05:20;100487.28;;;15.57;84.67
75192;BME280;63771;52.580;9.734;2023-09-19T07:07:45;100497.38;;;15.54;82.38
75192;BME280;63771;52.580;9.734;2023-09-19T07:10:10;100507.66;;;15.54;83.30
75192;BME280;63771;52.580;9.734;2023-09-19T07:12:36;100501.56;;;15.52;81.16
75192;BME280;63771;52.580;9.734;2023-09-19T07:15:01;100504.13;;;15.52;81.61
75192;BME280;63771;52.580;9.734;2023-09-19T07:17:26;100488.34;;;15.61;82.06
75192;BME280;63771;52.580;9.734;2023-09-19T07:19:53;100505.34;;;15.59;80.02
75192;BME280;63771;52.580;9.734;2023-09-19T07:22:18;100505.44;;;15.60;81.61
75192;BME280;63771;52.580;9.734;2023-09-19T07:24:43;100507.34;;;15.63;80.66
75192;BME280;63771;52.580;9.734;2023-09-19T07:27:09;100521.16;;;15.65;80.89
75192;BME280;63771;52.580;9.734;2023-09-19T07:29:34;100529.59;;;15.62;78.77
75192;BME280;63771;52.580;9.734;2023-09-19T07:31:59;100528.00;;;15.64;80.07
75192;BME280;63771;52.580;9.734;2023-09-19T07:34:25;100525.63;;;15.68;80.68
75192;BME280;63771;52.580;9.734;2023-09-19T07:36:50;100534.50;;;15.73;79.52
75192;BME280;63771;52.580;9.734;2023-09-19T07:39:16;100532.72;;;15.72;79.49
75192;BME280;63771;52.580;9.734;2023-09-19T07:41:41;100535.72;;;15.79;79.46
75192;BME280;63771;52.580;9.734;2023-09-19T07:44:07;100547.63;;;15.77;78.32
75192;BME280;63771;52.580;9.734;2023-09-19T07:46:32;100545.22;;;15.80;77.74
75192;BME280;63771;52.580;9.734;2023-09-19T07:48:58;100553.81;;;15.81;78.02
75192;BME280;63771;52.580;9.734;2023-09-19T07:51:24;100553.22;;;15.85;78.45
75192;BME280;63771;52.580;9.734;2023-09-19T07:53:49;100553.22;;;15.85;77.40
75192;BME280;63771;52.580;9.734;2023-09-19T07:56:14;100551.63;;;15.87;76.78
75192;BME280;63771;52.580;9.734;2023-09-19T07:58:40;100548.59;;;15.94;77.83
75192;BME280;63771;52.580;9.734;2023-09-19T08:01:10;100532.53;;;15.98;77.82
75192;BME280;63771;52.580;9.734;2023-09-19T08:03:36;100546.56;;;16.03;77.92
75192;BME280;63771;52.580;9.734;2023-09-19T08:06:06;100551.06;;;16.07;77.00
75192;BME280;63771;52.580;9.734;2023-09-19T08:08:32;100542.56;;;16.08;73.92
75192;BME280;63771;52.580;9.734;2023-09-19T08:11:03;100540.00;;;16.08;75.64
75192;BME280;63771;52.580;9.734;2023-09-19T08:13:35;100542.78;;;16.13;76.53
75192;BME280;63771;52.580;9.734;2023-09-19T08:16:00;100549.75;;;16.14;75.19
75192;BME280;63771;52.580;9.734;2023-09-19T08:18:26;100554.88;;;16.14;74.93
75192;BME280;63771;52.580;9.734;2023-09-19T08:20:55;100560.31;;;16.18;76.09
75192;BME280;63771;52.580;9.734;2023-09-19T08:23:20;100554.22;;;16.18;74.93
75192;BME280;63771;52.580;9.734;2023-09-19T08:25:47;100544.94;;;16.20;73.80
75192;BME280;63771;52.580;9.734;2023-09-19T08:28:12;100555.38;;;16.23;74.66
75192;BME280;63771;52.580;9.734;2023-09-19T08:30:42;100557.06;;;16.23;73.69
75192;BME280;63771;52.580;9.734;2023-09-19T08:33:08;100536.41;;;16.21;74.19
75192;BME280;63771;52.580;9.734;2023-09-19T08:35:33;100553.06;;;16.28;74.18
75192;BME280;63771;52.580;9.734;2023-09-19T08:37:58;100547.91;;;16.28;74.00
75192;BME280;63771;52.580;9.734;2023-09-19T08:40:30;100551.81;;;16.36;75.78
75192;BME280;63771;52.580;9.734;2023-09-19T08:42:58;100550.41;;;16.41;75.47
75192;BME280;63771;52.580;9.734;2023-09-19T08:45:24;100541.25;;;16.46;74.17
75192;BME280;63771;52.580;9.734;2023-09-19T08:48:09;100545.75;;;16.50;73.95
75192;BME280;63771;52.580;9.734;2023-09-19T08:51:02;100554.63;;;16.55;73.03
75192;BME280;63771;52.580;9.734;2023-09-19T08:56:09;100570.97;;;16.56;71.00
75192;BME280;63771;52.580;9.734;2023-09-19T08:58:45;100571.22;;;16.60;72.35
75192;BME280;63771;52.580;9.734;2023-09-19T09:01:14;100571.31;;;16.62;71.36
75192;BME280;63771;52.580;9.734;2023-09-19T09:03:40;100566.22;;;16.63;70.26
75192;BME280;63771;52.580;9.734;2023-09-19T09:06:08;100562.06;;;16.65;71.51
75192;BME280;63771;52.580;9.734;2023-09-19T09:08:40;100576.84;;;16.69;72.03
75192;BME280;63771;52.580;9.734;2023-09-19T09:11:06;100562.28;;;16.70;71.03
75192;BME280;63771;52.580;9.734;2023-09-19T09:13:35;100575.44;;;16.75;71.54
75192;BME280;63771;52.580;9.734;2023-09-19T09:16:01;100565.97;;;16.74;68.80
75192;BME280;63771;52.580;9.734;2023-09-19T09:18:26;100559.63;;;16.68;69.21
75192;BME280;63771;52.580;9.734;2023-09-19T09:20:53;100570.00;;;16.70;70.59
75192;BME280;63771;52.580;9.734;2023-09-19T09:23:18;100567.56;;;16.72;68.96
75192;BME280;63771;52.580;9.734;2023-09-19T09:25:51;100574.56;;;16.74;70.12
75192;BME280;63771;52.580;9.734;2023-09-19T09:28:23;100573.06;;;16.78;70.51
75192;BME280;63771;52.580;9.734;2023-09-19T09:30:48;100567.41;;;16.85;70.57
75192;BME280;63771;52.580;9.734;2023-09-19T09:33:14;100558.25;;;16.90;70.51
75192;BME280;63771;52.580;9.734;2023-09-19T09:35:52;100562.84;;;16.95;71.68
75192;BME280;63771;52.580;9.734;2023-09-19T09:38:19;100566.47;;;16.99;69.33
75192;BME280;63771;52.580;9.734;2023-09-19T09:40:49;100577.94;;;17.04;70.79
75192;BME280;63771;52.580;9.734;2023-09-19T09:43:32;100576.31;;;17.06;69.29
75192;BME280;63771;52.580;9.734;2023-09-19T09:46:11;100581.63;;;17.09;68.44
75192;BME280;63771;52.580;9.734;2023-09-19T09:51:49;100582.34;;;17.07;70.35
75192;BME280;63771;52.580;9.734;2023-09-19T09:54:26;100585.16;;;17.11;70.49
75192;BME280;63771;52.580;9.734;2023-09-19T09:57:08;100584.28;;;17.11;69.92
75192;BME280;63771;52.580;9.734;2023-09-19T09:59:53;100583.72;;;17.16;69.74
75192;BME280;63771;52.580;9.734;2023-09-19T10:02:26;100582.28;;;17.21;70.65
75192;BME280;63771;52.580;9.734;2023-09-19T10:04:57;100573.97;;;17.27;70.30
75192;BME280;63771;52.580;9.734;2023-09-19T10:07:40;100586.31;;;17.33;69.36
75192;BME280;63771;52.580;9.734;2023-09-19T10:10:08;100593.41;;;17.37;68.78
75192;BME280;63771;52.580;9.734;2023-09-19T10:12:55;100580.59;;;17.38;66.94
75192;BME280;63771;52.580;9.734;2023-09-19T10:15:31;100583.25;;;17.40;67.63
75192;BME280;63771;52.580;9.734;2023-09-19T10:17:59;100575.75;;;17.44;69.00
75192;BME280;63771;52.580;9.734;2023-09-19T10:20:26;100573.31;;;17.47;67.15
75192;BME280;63771;52.580;9.734;2023-09-19T10:22:56;100572.69;;;17.52;68.25
75192;BME280;63771;52.580;9.734;2023-09-19T10:25:25;100584.06;;;17.55;67.89
75192;BME280;63771;52.580;9.734;2023-09-19T10:27:51;100577.25;;;17.57;67.31
75192;BME280;63771;52.580;9.734;2023-09-19T10:30:18;100566.22;;;17.60;65.98
75192;BME280;63771;52.580;9.734;2023-09-19T10:32:47;100571.47;;;17.61;66.59
75192;BME280;63771;52.580;9.734;2023-09-19T10:35:18;100584.59;;;17.66;66.18
75192;BME280;63771;52.580;9.734;2023-09-19T10:37:47;100586.44;;;17.68;67.19
75192;BME280;63771;52.580;9.734;2023-09-19T10:40:15;100578.09;;;17.72;67.51
75192;BME280;63771;52.580;9.734;2023-09-19T10:42:42;100575.50;;;17.72;65.74
75192;BME280;63771;52.580;9.734;2023-09-19T10:45:08;100571.47;;;17.78;67.14
75192;BME280;63771;52.580;9.734;2023-09-19T10:47:38;100573.53;;;17.85;66.97
75192;BME280;63771;52.580;9.734;2023-09-19T10:50:06;100570.28;;;17.89;65.72
75192;BME280;63771;52.580;9.734;2023-09-19T10:52:31;100578.09;;;17.90;65.28
75192;BME280;63771;52.580;9.734;2023-09-19T10:55:00;100580.78;;;17.92;65.14
75192;BME280;63771;52.580;9.734;2023-09-19T10:57:26;100584.31;;;17.94;65.32
75192;BME280;63771;52.580;9.734;2023-09-19T11:00:06;100576.75;;;17.97;65.84
75192;BME280;63771;52.580;9.734;2023-09-19T11:03:24;100579.22;;;17.95;64.75
75192;BME280;63771;52.580;9.734;2023-09-19T11:06:12;100572.53;;;17.99;66.23
75192;BME280;63771;52.580;9.734;2023-09-19T11:08:58;100583.69;;;17.98;64.77
75192;BME280;63771;52.580;9.734;2023-09-19T11:11:42;100567.13;;;17.94;63.62
75192;BME280;63771;52.580;9.734;2023-09-19T11:46:30;100564.75;;;18.33;61.34
75192;BME280;63771;52.580;9.734;2023-09-19T11:49:05;100572.94;;;18.24;59.82
75192;BME280;63771;52.580;9.734;2023-09-19T11:51:41;100571.22;;;18.25;60.80
75192;BME280;63771;52.580;9.734;2023-09-19T11:54:11;100574.47;;;18.21;60.58
75192;BME280;63771;52.580;9.734;2023-09-19T11:56:44;100577.16;;;18.22;60.24
75192;BME280;63771;52.580;9.734;2023-09-19T11:59:11;100584.88;;;18.22;60.82
75192;BME280;63771;52.580;9.734;2023-09-19T12:01:38;100580.69;;;18.24;61.72
75192;BME280;63771;52.580;9.734;2023-09-19T12:04:11;100572.28;;;18.29;61.24
75192;BME280;63771;52.580;9.734;2023-09-19T12:06:37;100574.97;;;18.32;60.48
75192;BME280;63771;52.580;9.734;2023-09-19T12:09:12;100565.63;;;18.34;59.65
75192;BME280;63771;52.580;9.734;2023-09-19T12:11:42;100568.44;;;18.38;58.94
75192;BME280;63771;52.580;9.734;2023-09-19T12:14:09;100565.91;;;18.40;59.46
75192;BME280;63771;52.580;9.734;2023-09-19T12:16:34;100566.97;;;18.43;60.13
75192;BME280;63771;52.580;9.734;2023-09-19T12:19:22;100574.72;;;18.43;59.21
75192;BME280;63771;52.580;9.734;2023-09-19T12:22:02;100562.44;;;18.39;57.49
75192;BME280;63771;52.580;9.734;2023-09-19T12:24:32;100555.41;;;18.37;59.35
75192;BME280;63771;52.580;9.734;2023-09-19T12:27:05;100553.94;;;18.42;61.18
75192;BME280;63771;52.580;9.734;2023-09-19T12:29:32;100560.16;;;18.45;62.14
75192;BME280;63771;52.580;9.734;2023-09-19T12:32:06;100562.00;;;18.48;61.05
75192;BME280;63771;52.580;9.734;2023-09-19T12:34:32;100554.38;;;18.51;60.78
75192;BME280;63771;52.580;9.734;2023-09-19T12:37:07;100555.44;;;18.55;60.67
75192;BME280;63771;52.580;9.734;2023-09-19T12:39:53;100550.47;;;18.59;62.70
75192;BME280;63771;52.580;9.734;2023-09-19T12:42:39;100544.72;;;18.65;60.81
75192;BME280;63771;52.580;9.734;2023-09-19T12:45:07;100560.47;;;18.69;62.32
75192;BME280;63771;52.580;9.734;2023-09-19T12:47:34;100552.00;;;18.73;61.20
75192;BME280;63771;52.580;9.734;2023-09-19T12:52:46;100544.41;;;18.76;60.41
75192;BME280;63771;52.580;9.734;2023-09-19T12:55:40;100543.59;;;18.77;61.42
75192;BME280;63771;52.580;9.734;2023-09-19T12:58:13;100545.34;;;18.78;61.14
75192;BME280;63771;52.580;9.734;2023-09-19T13:00:44;100536.81;;;18.80;61.87
75192;BME280;63771;52.580;9.734;2023-09-19T13:08:20;100549.34;;;18.90;60.82
75192;BME280;63771;52.580;9.734;2023-09-19T13:13:51;100540.22;;;18.98;61.20
75192;BME280;63771;52.580;9.734;2023-09-19T13:19:36;100538.06;;;19.07;62.01
75192;BME280;63771;52.580;9.734;2023-09-19T13:22:02;100526.06;;;19.09;60.99
75192;BME280;63771;52.580;9.734;2023-09-19T13:24:28;100533.81;;;19.09;60.13
75192;BME280;63771;52.580;9.734;2023-09-19T13:26:55;100533.00;;;19.10;60.37
75192;BME280;63771;52.580;9.734;2023-09-19T13:29:21;100539.19;;;19.14;61.85
75192;BME280;63771;52.580;9.734;2023-09-19T13:31:50;100522.94;;;19.16;61.26
75192;BME280;63771;52.580;9.734;2023-09-19T13:34:18;100520.41;;;19.18;61.32
75192;BME280;63771;52.580;9.734;2023-09-19T13:36:45;100523.06;;;19.19;62.94
75192;BME280;63771;52.580;9.734;2023-09-19T13:39:13;100523.88;;;19.18;61.15
75192;BME280;63771;52.580;9.734;2023-09-19T13:41:39;100518.72;;;19.18;60.13
75192;BME280;63771;52.580;9.734;2023-09-19T13:44:05;100512.66;;;19.18;60.06
75192;BME280;63771;52.580;9.734;2023-09-19T13:46:31;100511.91;;;19.20;60.14
75192;BME280;63771;52.580;9.734;2023-09-19T13:49:00;100502.25;;;19.16;59.11
75192;BME280;63771;52.580;9.734;2023-09-19T13:51:31;100502.38;;;19.19;60.62
75192;BME280;63771;52.580;9.734;2023-09-19T13:53:56;100515.44;;;19.22;60.65
75192;BME280;63771;52.580;9.734;2023-09-19T13:56:21;100507.69;;;19.22;59.83
75192;BME280;63771;52.580;9.734;2023-09-19T13:58:47;100520.84;;;19.27;60.28
75192;BME280;63771;52.580;9.734;2023-09-19T14:01:12;100518.31;;;19.28;59.74
75192;BME280;63771;52.580;9.734;2023-09-19T14:03:41;100508.22;;;19.35;59.00
75192;BME280;63771;52.580;9.734;2023-09-19T14:06:18;100500.59;;;19.38;59.39
75192;BME280;63771;52.580;9.734;2023-09-19T14:08:44;100493.72;;;19.38;59.84